createdAt,value
2022-12-16T00:01:18.627Z,5.40
2022-12-16T00:03:56.792Z,5.40
2022-12-16T00:06:26.343Z,5.40
2022-12-16T00:08:53.065Z,5.50
2022-12-16T00:11:20.412Z,5.40
2022-12-16T00:13:47.201Z,5.40
2022-12-16T00:16:16.421Z,5.40
2022-12-16T00:18:43.204Z,5.40
2022-12-16T00:21:10.455Z,5.50
2022-12-16T00:23:39.248Z,5.50
2022-12-16T00:26:06.262Z,5.40
2022-12-16T00:28:33.171Z,5.40
2022-12-16T00:30:59.812Z,5.50
2022-12-16T00:33:27.703Z,5.50
2022-12-16T00:35:55.005Z,5.50
2022-12-16T00:38:22.916Z,5.50
2022-12-16T00:40:49.725Z,5.50
2022-12-16T00:43:20.104Z,5.50
2022-12-16T00:45:47.700Z,5.50
2022-12-16T00:48:15.076Z,5.50
2022-12-16T00:50:44.116Z,5.50
2022-12-16T00:53:10.692Z,5.50
2022-12-16T00:55:37.319Z,5.50
2022-12-16T00:58:03.903Z,5.50
2022-12-16T01:00:30.544Z,5.50
2022-12-16T01:02:58.319Z,5.50
2022-12-16T01:05:26.878Z,5.50
2022-12-16T01:07:55.144Z,5.50
2022-12-16T01:10:23.911Z,5.50
2022-12-16T01:12:50.967Z,5.50
2022-12-16T01:15:18.493Z,5.60
2022-12-16T01:17:45.634Z,5.60
2022-12-16T01:20:13.362Z,5.60
2022-12-16T01:22:40.480Z,5.60
2022-12-16T01:25:08.190Z,5.60
2022-12-16T01:27:35.243Z,5.60
2022-12-16T01:30:01.866Z,5.60
2022-12-16T01:32:28.541Z,5.60
2022-12-16T01:34:55.842Z,5.60
2022-12-16T01:37:23.821Z,5.60
2022-12-16T01:39:51.054Z,5.60
2022-12-16T01:42:21.343Z,5.60
2022-12-16T01:44:52.143Z,5.60
2022-12-16T01:47:30.507Z,5.60
2022-12-16T01:50:04.253Z,5.60
2022-12-16T01:52:37.402Z,5.60
2022-12-16T01:55:13.279Z,5.60
2022-12-16T01:57:59.205Z,5.60
2022-12-16T02:00:25.834Z,5.50
2022-12-16T02:02:54.430Z,5.50
2022-12-16T02:05:22.772Z,5.50
2022-12-16T02:07:55.487Z,5.40
2022-12-16T02:10:38.687Z,5.50
2022-12-16T02:13:42.933Z,5.50
2022-12-16T02:16:27.588Z,5.50
2022-12-16T02:19:17.196Z,5.50
2022-12-16T02:22:00.734Z,5.50
2022-12-16T02:24:54.395Z,5.40
2022-12-16T02:27:45.719Z,5.40
2022-12-16T02:30:39.804Z,5.40
2022-12-16T02:33:41.478Z,5.40
2022-12-16T02:36:42.987Z,5.50
2022-12-16T02:39:14.595Z,5.50
2022-12-16T02:45:53.878Z,5.50
2022-12-16T02:48:20.861Z,5.50
2022-12-16T02:50:50.732Z,5.60
2022-12-16T02:53:19.180Z,5.50
2022-12-16T02:56:07.710Z,5.40
2022-12-16T02:58:37.083Z,5.30
2022-12-16T03:01:12.000Z,5.30
2022-12-16T03:04:05.802Z,5.30
2022-12-16T03:06:36.234Z,5.20
2022-12-16T03:09:08.062Z,5.20
2022-12-16T03:11:36.479Z,5.30
2022-12-16T03:14:06.151Z,5.20
2022-12-16T03:16:34.467Z,5.20
2022-12-16T03:19:04.889Z,5.20
2022-12-16T03:21:39.452Z,5.30
2022-12-16T03:24:10.597Z,5.20
2022-12-16T03:26:50.402Z,5.20
2022-12-16T03:29:37.772Z,5.20
2022-12-16T03:32:12.797Z,5.20
2022-12-16T03:34:45.511Z,5.20
2022-12-16T03:37:13.180Z,5.20
2022-12-16T03:39:45.403Z,5.20
2022-12-16T03:42:15.404Z,5.20
2022-12-16T03:44:44.896Z,5.20
2022-12-16T03:47:11.579Z,5.20
2022-12-16T03:49:38.467Z,5.20
2022-12-16T03:52:05.629Z,5.20
2022-12-16T03:54:32.260Z,5.20
2022-12-16T03:56:59.336Z,5.20
2022-12-16T03:59:25.907Z,5.20
2022-12-16T04:01:52.989Z,5.10
2022-12-16T04:04:19.772Z,5.20
2022-12-16T04:07:06.369Z,5.10
2022-12-16T04:09:32.972Z,5.10
2022-12-16T04:12:18.060Z,5.10
2022-12-16T04:15:03.280Z,5.10
2022-12-16T04:17:48.631Z,5.10
2022-12-16T04:20:35.892Z,5.00
2022-12-16T04:23:21.684Z,5.00
2022-12-16T04:25:48.395Z,5.10
2022-12-16T04:28:14.979Z,5.10
2022-12-16T04:30:41.876Z,5.10
2022-12-16T04:33:31.458Z,5.10
2022-12-16T04:36:17.042Z,5.00
2022-12-16T04:39:02.511Z,5.00
2022-12-16T04:41:47.673Z,5.00
2022-12-16T04:44:33.168Z,5.00
2022-12-16T04:47:18.549Z,5.00
2022-12-16T04:50:03.911Z,5.10
2022-12-16T04:52:49.412Z,5.00
2022-12-16T04:55:34.835Z,5.00
2022-12-16T04:58:20.944Z,5.00
2022-12-16T05:01:07.632Z,5.00
2022-12-16T05:03:53.400Z,5.00
2022-12-16T05:06:39.654Z,5.00
2022-12-16T05:09:26.062Z,5.00
2022-12-16T05:12:11.618Z,5.00
2022-12-16T05:14:57.057Z,5.00
2022-12-16T05:17:42.219Z,5.00
2022-12-16T05:20:27.481Z,5.00
2022-12-16T05:23:15.147Z,5.00
2022-12-16T05:26:01.037Z,5.00
2022-12-16T05:28:46.537Z,5.00
2022-12-16T05:31:31.888Z,5.00
2022-12-16T05:34:17.147Z,5.00
2022-12-16T05:37:02.529Z,5.00
2022-12-16T05:39:47.999Z,5.00
2022-12-16T05:42:33.461Z,4.90
2022-12-16T05:45:18.963Z,5.00
2022-12-16T05:48:07.376Z,4.90
2022-12-16T05:50:52.897Z,4.90
2022-12-16T05:53:40.695Z,4.90
2022-12-16T05:56:25.900Z,4.90
2022-12-16T05:59:11.218Z,4.90
2022-12-16T06:01:56.801Z,4.90
2022-12-16T06:04:42.044Z,4.80
2022-12-16T06:07:27.267Z,4.80
2022-12-16T06:10:12.748Z,4.90
2022-12-16T06:12:58.088Z,4.90
2022-12-16T06:15:43.446Z,4.80
2022-12-16T06:18:28.996Z,4.90
2022-12-16T06:23:57.911Z,4.90
2022-12-16T06:26:43.018Z,4.90
2022-12-16T06:29:28.524Z,4.90
2022-12-16T06:32:13.789Z,4.90
2022-12-16T06:34:58.834Z,4.90
2022-12-16T06:37:44.298Z,4.90
2022-12-16T06:40:29.643Z,4.90
2022-12-16T06:43:15.953Z,4.90
2022-12-16T06:46:01.229Z,4.80
2022-12-16T06:48:46.676Z,4.70
2022-12-16T06:51:32.044Z,4.80
2022-12-16T06:54:17.572Z,4.80
2022-12-16T06:57:03.021Z,4.80
2022-12-16T06:59:48.785Z,4.80
2022-12-16T07:02:34.376Z,5.00
2022-12-16T07:05:19.765Z,5.00
2022-12-16T07:08:09.294Z,5.10
2022-12-16T07:10:58.046Z,5.10
2022-12-16T07:13:48.662Z,5.10
2022-12-16T07:16:34.348Z,5.10
2022-12-16T07:19:19.808Z,5.10
2022-12-16T07:22:05.342Z,5.10
2022-12-16T07:24:50.704Z,5.20
2022-12-16T07:27:36.210Z,5.20
2022-12-16T07:30:21.645Z,5.20
2022-12-16T07:33:09.048Z,5.20
2022-12-16T07:35:54.500Z,5.10
2022-12-16T07:38:39.850Z,5.20
2022-12-16T07:41:25.386Z,5.20
2022-12-16T07:44:10.881Z,5.20
2022-12-16T07:46:56.240Z,5.10
2022-12-16T07:49:41.357Z,5.20
2022-12-16T07:52:26.888Z,5.10
2022-12-16T07:55:12.116Z,5.00
2022-12-16T07:57:57.585Z,4.90
2022-12-16T08:00:42.874Z,4.90
2022-12-16T08:03:28.454Z,4.90
2022-12-16T08:06:13.699Z,4.80
2022-12-16T08:08:59.193Z,4.80
2022-12-16T08:11:44.367Z,4.80
2022-12-16T08:14:30.066Z,4.90
2022-12-16T08:17:15.518Z,4.90
2022-12-16T08:20:00.731Z,4.90
2022-12-16T08:22:46.322Z,4.90
2022-12-16T08:25:31.721Z,5.00
2022-12-16T08:28:16.964Z,4.90
2022-12-16T08:31:02.335Z,5.00
2022-12-16T08:33:47.456Z,5.00
2022-12-16T08:36:32.922Z,5.10
2022-12-16T08:39:18.296Z,5.10
2022-12-16T08:42:03.704Z,5.10
2022-12-16T08:44:49.160Z,5.20
2022-12-16T08:47:34.272Z,5.20
2022-12-16T08:50:19.821Z,5.20
2022-12-16T08:53:05.127Z,5.20
2022-12-16T08:55:50.608Z,5.10
2022-12-16T08:58:41.001Z,5.20
2022-12-16T09:01:26.338Z,5.10
2022-12-16T09:04:19.044Z,5.20
2022-12-16T09:07:04.484Z,5.20
2022-12-16T09:09:49.677Z,5.20
2022-12-16T09:12:34.781Z,5.20
2022-12-16T09:15:20.154Z,5.20
2022-12-16T09:18:13.108Z,5.20
2022-12-16T09:20:58.363Z,5.20
2022-12-16T09:23:44.065Z,5.30
2022-12-16T09:26:29.506Z,5.20
2022-12-16T09:29:14.728Z,5.20
2022-12-16T09:32:00.192Z,5.20
2022-12-16T09:34:45.541Z,5.30
2022-12-16T09:37:30.648Z,5.30
2022-12-16T09:40:15.937Z,5.30
2022-12-16T09:43:14.783Z,5.30
2022-12-16T09:46:19.065Z,5.30
2022-12-16T09:49:24.487Z,5.30
2022-12-16T09:52:16.508Z,5.30
2022-12-16T09:55:05.459Z,5.30
2022-12-16T09:57:53.628Z,5.30
2022-12-16T10:00:52.233Z,5.30
2022-12-16T10:03:47.028Z,5.30
2022-12-16T10:06:51.946Z,5.30
2022-12-16T10:09:56.696Z,5.30
2022-12-16T10:12:56.062Z,5.30
2022-12-16T10:16:06.668Z,5.30
2022-12-16T10:19:06.098Z,5.30
2022-12-16T10:22:06.262Z,5.30
2022-12-16T10:25:46.884Z,5.40
2022-12-16T10:29:06.089Z,5.30
2022-12-16T10:31:52.461Z,5.30
2022-12-16T10:34:45.447Z,5.40
2022-12-16T10:37:36.952Z,5.40
2022-12-16T10:40:24.332Z,5.40
2022-12-16T10:43:22.908Z,5.40
2022-12-16T10:46:13.249Z,5.40
2022-12-16T10:48:58.497Z,5.40
2022-12-16T10:51:47.392Z,5.40
2022-12-16T10:54:51.552Z,5.60
2022-12-16T10:58:00.467Z,5.70
2022-12-16T11:01:10.505Z,5.80
2022-12-16T11:03:59.679Z,5.80
2022-12-16T11:06:54.079Z,5.90
2022-12-16T11:09:47.486Z,5.80
2022-12-16T11:12:34.052Z,5.70
2022-12-16T11:15:39.877Z,5.80
2022-12-16T11:18:33.020Z,5.70
2022-12-16T11:21:24.410Z,5.70
2022-12-16T11:24:28.657Z,5.60
2022-12-16T11:27:19.385Z,5.60
2022-12-16T11:30:20.226Z,5.70
2022-12-16T11:33:11.904Z,5.70
2022-12-16T11:36:06.162Z,5.70
2022-12-16T11:39:04.747Z,5.70
2022-12-16T11:42:02.236Z,5.60
2022-12-16T11:45:07.052Z,5.60
2022-12-16T11:47:59.645Z,5.60
2022-12-16T11:50:47.327Z,5.60
2022-12-16T11:53:44.437Z,5.60
2022-12-16T11:57:03.616Z,5.60
2022-12-16T12:00:01.152Z,5.60
2022-12-16T12:02:58.152Z,5.60
2022-12-16T12:06:07.104Z,5.60
2022-12-16T12:09:06.345Z,5.60
2022-12-16T12:11:55.633Z,5.60
2022-12-16T12:14:54.537Z,5.70
2022-12-16T12:17:59.025Z,5.60
2022-12-16T12:21:16.604Z,5.60
2022-12-16T12:24:26.766Z,5.60
2022-12-16T12:27:35.261Z,5.60
2022-12-16T12:30:34.699Z,5.60
2022-12-16T12:33:38.925Z,5.60
2022-12-16T12:36:44.462Z,5.60
2022-12-16T12:40:01.843Z,5.50
2022-12-16T12:42:56.379Z,5.60
2022-12-16T12:46:06.096Z,5.70
2022-12-16T12:49:05.934Z,5.60
2022-12-16T12:52:26.350Z,5.60
2022-12-16T12:55:38.968Z,5.60
2022-12-16T12:58:29.182Z,5.70
2022-12-16T13:01:16.217Z,5.70
2022-12-16T13:04:09.216Z,5.70
2022-12-16T13:10:48.281Z,5.70
2022-12-16T13:13:34.257Z,5.70
2022-12-16T13:16:20.952Z,5.70
2022-12-16T13:19:09.683Z,5.70
2022-12-16T13:21:56.280Z,5.70
2022-12-16T13:24:45.175Z,5.70
2022-12-16T13:30:35.215Z,5.80
2022-12-16T13:33:33.234Z,5.70
2022-12-16T13:36:19.862Z,5.80
2022-12-16T13:39:10.764Z,5.80
2022-12-16T13:41:56.208Z,5.80
2022-12-16T13:45:00.253Z,5.80
2022-12-16T13:48:00.729Z,5.80
2022-12-16T13:51:05.832Z,5.80
2022-12-16T13:53:58.396Z,5.80
2022-12-16T13:56:50.438Z,5.80
2022-12-16T13:59:50.588Z,5.80
2022-12-16T14:02:39.023Z,5.90
2022-12-16T14:05:43.716Z,5.80
2022-12-16T14:08:36.466Z,5.80
2022-12-16T14:11:36.688Z,5.90
2022-12-16T14:14:28.826Z,5.80
2022-12-16T14:17:21.809Z,5.80
2022-12-16T14:20:19.341Z,5.80
2022-12-16T14:23:26.890Z,5.70
2022-12-16T14:26:24.173Z,5.80
2022-12-16T14:29:12.704Z,5.80
2022-12-16T14:32:03.751Z,5.80
2022-12-16T14:34:51.679Z,5.80
2022-12-16T14:37:52.174Z,5.80
2022-12-16T14:40:40.085Z,5.80
2022-12-16T14:43:44.914Z,5.80
2022-12-16T14:46:50.383Z,5.70
2022-12-16T14:49:48.149Z,5.70
2022-12-16T14:52:52.881Z,5.70
2022-12-16T14:55:52.220Z,5.70
2022-12-16T14:58:42.731Z,5.70
2022-12-16T15:01:39.681Z,5.70
2022-12-16T15:04:36.064Z,5.60
2022-12-16T15:07:30.856Z,5.60
2022-12-16T15:10:18.188Z,5.60
2022-12-16T15:13:06.350Z,5.60
2022-12-16T15:16:00.445Z,5.60
2022-12-16T15:19:02.612Z,5.50
2022-12-16T15:21:54.369Z,5.50
2022-12-16T15:24:51.255Z,5.50
2022-12-16T15:27:39.396Z,5.50
2022-12-16T15:30:57.525Z,5.50
2022-12-16T15:33:45.879Z,5.50
2022-12-16T15:37:08.963Z,5.40
2022-12-16T15:39:59.443Z,5.50
2022-12-16T15:42:52.802Z,5.50
2022-12-16T15:45:50.299Z,5.50
2022-12-16T15:48:56.640Z,5.50
2022-12-16T15:52:02.038Z,5.40
2022-12-16T15:54:49.786Z,5.40
2022-12-16T15:57:46.065Z,5.40
2022-12-16T16:00:53.142Z,5.40
2022-12-16T16:03:52.916Z,5.50
2022-12-16T16:06:44.599Z,5.50
2022-12-16T16:09:50.490Z,5.50
2022-12-16T16:12:39.032Z,5.50
2022-12-16T16:15:29.621Z,5.50
2022-12-16T16:18:27.835Z,5.50
2022-12-16T16:21:13.555Z,5.60
2022-12-16T16:23:59.594Z,5.50
2022-12-16T16:26:49.245Z,5.50
2022-12-16T16:29:34.868Z,5.50
2022-12-16T16:32:20.778Z,5.50
2022-12-16T16:35:06.366Z,5.50
2022-12-16T16:37:55.023Z,5.50
2022-12-16T16:40:57.860Z,5.50
2022-12-16T16:43:44.035Z,5.50
2022-12-16T16:47:16.724Z,5.50
2022-12-16T16:50:05.453Z,5.50
2022-12-16T16:52:57.352Z,5.40
2022-12-16T16:55:43.959Z,5.40
2022-12-16T16:58:39.196Z,5.40
2022-12-16T17:01:24.617Z,5.50
2022-12-16T17:04:18.949Z,5.40
2022-12-16T17:07:05.616Z,5.40
2022-12-16T17:09:58.744Z,5.40
2022-12-16T17:12:51.663Z,5.40
2022-12-16T17:15:55.869Z,5.40
2022-12-16T17:18:45.553Z,5.40
2022-12-16T17:21:33.066Z,5.40
2022-12-16T17:24:21.698Z,5.40
2022-12-16T17:27:12.503Z,5.40
2022-12-16T17:30:00.609Z,5.50
2022-12-16T17:32:46.153Z,5.50
2022-12-16T17:35:31.699Z,5.50
2022-12-16T17:38:16.903Z,5.50
2022-12-16T17:41:02.384Z,5.40
2022-12-16T17:43:47.610Z,5.50
2022-12-16T17:46:33.175Z,5.50
2022-12-16T17:49:18.365Z,5.40
2022-12-16T17:52:03.890Z,5.40
2022-12-16T17:54:49.315Z,5.40
2022-12-16T17:57:34.846Z,5.40
2022-12-16T18:00:20.117Z,5.40
2022-12-16T18:03:05.397Z,5.40
2022-12-16T18:05:51.055Z,5.30
2022-12-16T18:08:39.465Z,5.40
2022-12-16T18:11:24.795Z,5.30
2022-12-16T18:14:10.030Z,5.30
2022-12-16T18:16:55.513Z,5.30
2022-12-16T18:19:40.608Z,5.40
2022-12-16T18:22:26.097Z,5.40
2022-12-16T18:25:11.441Z,5.40
2022-12-16T18:27:56.914Z,5.50
2022-12-16T18:30:42.110Z,5.40
2022-12-16T18:33:27.336Z,5.40
2022-12-16T18:36:12.576Z,5.40
2022-12-16T18:38:57.989Z,5.40
2022-12-16T18:41:43.587Z,5.50
2022-12-16T18:44:31.632Z,5.50
2022-12-16T18:47:17.454Z,5.50
2022-12-16T18:50:02.736Z,5.50
2022-12-16T18:52:48.210Z,5.50
2022-12-16T18:55:35.927Z,5.50
2022-12-16T18:58:49.509Z,5.50
2022-12-16T19:01:29.093Z,5.50
2022-12-16T19:04:15.743Z,5.50
2022-12-16T19:07:01.560Z,5.50
2022-12-16T19:09:47.103Z,5.50
2022-12-16T19:12:32.514Z,5.50
2022-12-16T19:15:18.065Z,5.50
2022-12-16T19:18:03.462Z,5.50
2022-12-16T19:20:48.993Z,5.50
2022-12-16T19:23:34.911Z,5.50
2022-12-16T19:26:20.505Z,5.50
2022-12-16T19:29:09.181Z,5.50
2022-12-16T19:31:56.091Z,5.60
2022-12-16T19:34:41.422Z,5.60
2022-12-16T19:37:26.666Z,5.50
2022-12-16T19:40:12.222Z,5.50
2022-12-16T19:42:57.787Z,5.60
2022-12-16T19:45:43.237Z,5.60
2022-12-16T19:48:28.662Z,5.60
2022-12-16T19:51:18.944Z,5.60
2022-12-16T19:54:07.430Z,5.60
2022-12-16T19:56:53.693Z,5.50
2022-12-16T19:59:41.048Z,5.60
2022-12-16T20:02:30.216Z,5.60
2022-12-16T20:05:15.887Z,5.60
2022-12-16T20:08:01.218Z,5.60
2022-12-16T20:10:46.604Z,5.50
2022-12-16T20:13:32.145Z,5.60
2022-12-16T20:16:28.396Z,5.60
2022-12-16T20:19:14.320Z,5.60
2022-12-16T20:22:06.461Z,5.60
2022-12-16T20:24:52.836Z,5.70
2022-12-16T20:27:41.778Z,5.70
2022-12-16T20:30:27.819Z,5.70
2022-12-16T20:33:13.220Z,5.70
2022-12-16T20:35:58.746Z,5.60
2022-12-16T20:38:44.200Z,5.70
2022-12-16T20:41:29.665Z,5.70
2022-12-16T20:44:15.224Z,5.70
2022-12-16T20:47:00.697Z,5.70
2022-12-16T20:49:46.188Z,5.60
2022-12-16T20:52:31.595Z,5.60
2022-12-16T20:55:17.008Z,5.70
2022-12-16T20:58:02.224Z,5.60
2022-12-16T21:00:47.456Z,5.60
2022-12-16T21:03:32.675Z,5.70
2022-12-16T21:06:18.142Z,5.60
2022-12-16T21:09:03.596Z,5.60
2022-12-16T21:11:48.931Z,5.60
2022-12-16T21:14:34.439Z,5.60
2022-12-16T21:17:19.838Z,5.60
2022-12-16T21:20:08.324Z,5.60
2022-12-16T21:22:54.592Z,5.60
2022-12-16T21:25:44.176Z,5.60
2022-12-16T21:28:30.699Z,5.60
2022-12-16T21:31:19.205Z,5.60
2022-12-16T21:34:04.809Z,5.60
2022-12-16T21:36:49.980Z,5.60
2022-12-16T21:39:35.313Z,5.50
2022-12-16T21:42:20.648Z,5.60
2022-12-16T21:45:06.174Z,5.60
2022-12-16T21:47:51.476Z,5.60
2022-12-16T21:50:37.149Z,5.50
2022-12-16T21:53:22.765Z,5.60
2022-12-16T21:56:12.309Z,5.50
2022-12-16T21:58:57.529Z,5.50
2022-12-16T22:01:43.084Z,5.50
2022-12-16T22:04:28.515Z,5.60
2022-12-16T22:07:13.901Z,5.60
2022-12-16T22:09:59.216Z,5.60
2022-12-16T22:12:44.462Z,5.60
2022-12-16T22:15:29.663Z,5.60
2022-12-16T22:18:17.902Z,5.50
2022-12-16T22:21:17.007Z,5.50
2022-12-16T22:24:02.552Z,5.50
2022-12-16T22:26:47.967Z,5.50
2022-12-16T22:29:33.504Z,5.50
2022-12-16T22:32:22.722Z,5.40
2022-12-16T22:35:08.069Z,5.40
2022-12-16T22:37:53.564Z,5.40
2022-12-16T22:40:41.484Z,5.40
2022-12-16T22:43:26.837Z,5.40
2022-12-16T22:46:20.082Z,5.40
2022-12-16T22:49:06.469Z,5.30
2022-12-16T22:51:52.328Z,5.30
2022-12-16T22:54:39.281Z,5.30
2022-12-16T22:57:24.717Z,5.30
2022-12-16T23:00:10.199Z,5.20
2022-12-16T23:02:55.579Z,5.20
2022-12-16T23:05:42.398Z,5.20
2022-12-16T23:08:27.750Z,5.20
2022-12-16T23:11:15.008Z,5.20
2022-12-16T23:14:00.333Z,5.20
2022-12-16T23:16:45.921Z,5.20
2022-12-16T23:19:31.331Z,5.10
2022-12-16T23:22:16.703Z,5.10
2022-12-16T23:25:02.099Z,5.10
2022-12-16T23:27:47.372Z,5.10
2022-12-16T23:30:32.902Z,5.10
2022-12-16T23:33:21.771Z,5.10
2022-12-16T23:36:07.033Z,5.10
2022-12-16T23:38:53.364Z,5.10
2022-12-16T23:41:39.171Z,5.10
2022-12-16T23:44:24.557Z,5.00
2022-12-16T23:47:09.952Z,5.00
2022-12-16T23:49:56.558Z,5.10
2022-12-16T23:52:42.209Z,5.10
2022-12-16T23:55:28.106Z,5.10
2022-12-16T23:58:20.885Z,5.00
